Time;durP1;ratioP1;P1;durP2;ratioP2;P2;SDS_P1;SDS_P2;PMS_P1;PMS_P2;Temp;Humidity;BMP_temperature;BMP_pressure;BME280_temperature;BME280_humidity;BME280_pressure;Samples;Min_cycle;Max_cycle;Signal;HPM_P1;HPM_P2
2023/03/17 00:00:18;;;;;;;18.93;13.60;;;0.70;99.90;;;;;;5073607;28;20232;-73
2023/03/17 00:02:48;;;;;;;18.63;13.43;;;0.80;99.90;;;;;;5073215;28;20267;-73
2023/03/17 00:05:22;;;;;;;17.37;13.03;;;0.80;99.90;;;;;;5073466;28;20673;-73
2023/03/17 00:07:50;;;;;;;16.97;13.10;;;0.80;99.90;;;;;;5089935;28;20253;-73
2023/03/17 00:10:20;;;;;;;17.40;12.57;;;0.70;99.90;;;;;;5093285;28;20196;-73
2023/03/17 00:12:48;;;;;;;16.57;12.50;;;0.70;99.90;;;;;;5092706;28;20197;-73
2023/03/17 00:15:16;;;;;;;19.67;13.23;;;0.70;99.90;;;;;;5093464;28;20605;-73
2023/03/17 00:17:43;;;;;;;18.97;12.47;;;0.70;99.90;;;;;;5093377;28;20261;-74
2023/03/17 00:20:22;;;;;;;18.23;13.57;;;0.70;99.90;;;;;;5093258;28;20295;-73
2023/03/17 00:22:49;;;;;;;17.10;12.23;;;0.60;99.90;;;;;;5093179;28;20255;-75
2023/03/17 00:25:24;;;;;;;20.17;13.23;;;0.60;99.90;;;;;;5093501;28;20224;-73
2023/03/17 00:27:51;;;;;;;18.70;13.23;;;0.60;99.90;;;;;;5093231;28;20631;-73
2023/03/17 00:30:20;;;;;;;16.07;12.50;;;0.50;99.90;;;;;;5093222;28;20291;-73
2023/03/17 00:32:48;;;;;;;16.93;11.93;;;0.50;99.90;;;;;;5092731;28;20228;-73
2023/03/17 00:35:22;;;;;;;16.30;12.00;;;0.50;99.90;;;;;;5093046;28;20240;-73
2023/03/17 00:37:49;;;;;;;17.43;11.67;;;0.50;99.90;;;;;;5083196;28;20567;-73
2023/03/17 00:40:20;;;;;;;16.73;11.73;;;0.50;99.90;;;;;;5072966;28;20197;-73
2023/03/17 00:42:47;;;;;;;15.87;11.20;;;0.50;99.90;;;;;;5072798;28;20236;-73
2023/03/17 00:45:14;;;;;;;14.67;10.87;;;0.50;99.90;;;;;;5072585;28;20664;-73
2023/03/17 00:47:42;;;;;;;18.40;12.17;;;0.50;99.90;;;;;;5072606;28;20203;-73
2023/03/17 00:50:13;;;;;;;14.63;11.30;;;0.50;99.90;;;;;;5072918;28;20220;-73
2023/03/17 00:52:41;;;;;;;15.17;11.20;;;0.50;99.90;;;;;;5072638;28;20197;-73
2023/03/17 00:55:09;;;;;;;14.73;10.60;;;0.40;99.90;;;;;;5072851;28;20201;-73
2023/03/17 00:57:37;;;;;;;14.40;10.77;;;0.50;99.90;;;;;;5072562;28;20200;-73
2023/03/17 01:00:05;;;;;;;16.40;11.47;;;0.50;99.90;;;;;;5072578;28;20196;-73
2023/03/17 01:02:32;;;;;;;16.07;10.73;;;0.50;99.90;;;;;;5072488;28;20260;-73
2023/03/17 01:04:59;;;;;;;12.93;10.20;;;0.60;99.90;;;;;;5072656;28;20197;-73
2023/03/17 01:07:29;;;;;;;12.63;9.53;;;0.50;99.90;;;;;;5072478;28;20258;-73
2023/03/17 01:09:57;;;;;;;11.90;9.67;;;0.60;99.90;;;;;;5072559;28;20258;-73
2023/03/17 01:12:25;;;;;;;13.63;10.70;;;0.70;99.90;;;;;;5072617;28;20205;-73
2023/03/17 01:14:51;;;;;;;13.40;10.57;;;0.60;99.90;;;;;;5076338;28;20292;-73
2023/03/17 01:17:18;;;;;;;13.67;9.80;;;0.60;99.90;;;;;;5072456;28;20252;-73
2023/03/17 01:19:45;;;;;;;13.53;9.33;;;0.70;99.90;;;;;;5072572;28;20233;-73
2023/03/17 01:22:12;;;;;;;14.30;9.93;;;0.70;99.90;;;;;;5083830;28;20273;-73
2023/03/17 01:24:39;;;;;;;13.40;10.37;;;0.70;99.90;;;;;;5095004;28;20366;-73
2023/03/17 01:27:07;;;;;;;12.67;9.60;;;0.70;99.90;;;;;;5096585;28;20478;-73
2023/03/17 01:29:34;;;;;;;12.53;9.80;;;0.70;99.90;;;;;;5096410;28;20660;-73
2023/03/17 01:32:01;;;;;;;16.13;10.17;;;0.80;99.90;;;;;;5096699;28;20243;-73
2023/03/17 01:34:27;;;;;;;13.37;9.60;;;0.80;99.90;;;;;;5078782;28;20252;-73
2023/03/17 01:36:54;;;;;;;10.87;9.00;;;0.80;99.90;;;;;;5076141;28;20556;-73
2023/03/17 01:39:20;;;;;;;14.63;9.83;;;0.70;99.90;;;;;;5076102;28;20240;-74
2023/03/17 01:41:47;;;;;;;10.93;8.37;;;0.80;99.90;;;;;;5075955;28;20240;-73
2023/03/17 01:44:17;;;;;;;11.83;8.73;;;0.70;99.90;;;;;;5075856;28;20232;-73
2023/03/17 01:46:44;;;;;;;12.53;8.73;;;0.80;99.90;;;;;;5075990;28;20235;-73
2023/03/17 01:49:18;;;;;;;10.67;8.97;;;0.80;99.90;;;;;;5075739;28;20572;-73
2023/03/17 01:51:51;;;;;;;13.33;8.87;;;0.80;99.90;;;;;;5068015;28;20259;-74
2023/03/17 01:54:24;;;;;;;14.37;9.60;;;0.80;99.90;;;;;;5055816;28;20292;-73
2023/03/17 01:56:52;;;;;;;13.10;8.43;;;0.80;99.90;;;;;;5055675;28;20296;-73
2023/03/17 01:59:26;;;;;;;11.47;8.73;;;0.80;99.90;;;;;;5055837;28;20194;-73
2023/03/17 02:01:58;;;;;;;12.10;9.33;;;0.80;99.90;;;;;;5055670;28;20205;-73
2023/03/17 02:04:25;;;;;;;13.63;9.27;;;0.80;99.90;;;;;;5055622;28;20206;-73
2023/03/17 02:06:52;;;;;;;10.47;7.97;;;0.70;99.90;;;;;;5055486;28;20198;-73
2023/03/17 02:09:18;;;;;;;12.53;9.10;;;0.70;99.90;;;;;;5055492;28;20234;-73
2023/03/17 02:11:45;;;;;;;12.67;8.70;;;0.60;99.90;;;;;;5055572;28;20234;-73
2023/03/17 02:14:12;;;;;;;11.37;8.30;;;0.60;99.90;;;;;;5055411;28;20236;-74
2023/03/17 02:16:40;;;;;;;12.13;8.40;;;0.60;99.90;;;;;;5055369;28;20233;-73
2023/03/17 02:19:07;;;;;;;11.53;8.77;;;0.60;99.90;;;;;;5055279;28;20225;-73
2023/03/17 02:21:40;;;;;;;11.93;8.47;;;0.60;99.90;;;;;;5055258;28;20220;-73
2023/03/17 02:24:14;;;;;;;12.40;8.27;;;0.60;99.90;;;;;;5055325;28;20238;-73
2023/03/17 02:26:44;;;;;;;10.67;8.03;;;0.70;99.90;;;;;;5055363;28;20267;-73
2023/03/17 02:29:11;;;;;;;12.07;8.70;;;0.70;99.90;;;;;;5055170;28;20297;-74
2023/03/17 02:31:38;;;;;;;10.53;8.63;;;0.70;99.90;;;;;;5055075;28;20289;-73
2023/03/17 02:34:04;;;;;;;11.33;8.67;;;0.70;99.90;;;;;;5068846;28;20770;-73
2023/03/17 02:36:31;;;;;;;15.23;9.43;;;0.70;99.90;;;;;;5073857;28;20727;-73
2023/03/17 02:39:00;;;;;;;10.37;8.40;;;0.70;99.90;;;;;;5074877;28;20232;-73
2023/03/17 02:41:27;;;;;;;14.20;8.70;;;0.80;99.90;;;;;;5074906;28;20549;-74
2023/03/17 02:43:54;;;;;;;10.23;8.00;;;0.80;99.90;;;;;;5074891;28;20228;-73
2023/03/17 02:46:20;;;;;;;11.43;8.20;;;0.90;99.90;;;;;;5074887;28;20197;-74
2023/03/17 02:48:47;;;;;;;10.93;8.23;;;0.90;99.90;;;;;;5074658;28;20233;-73
2023/03/17 02:51:15;;;;;;;10.80;8.33;;;1.00;99.90;;;;;;5074845;28;20676;-74
2023/03/17 02:53:41;;;;;;;10.63;7.97;;;1.00;99.90;;;;;;5074717;28;20284;-74
2023/03/17 02:56:09;;;;;;;11.50;8.50;;;1.00;99.90;;;;;;5074683;28;20239;-74
2023/03/17 02:58:36;;;;;;;14.57;8.53;;;0.90;99.90;;;;;;5074652;28;20204;-74
2023/03/17 03:01:03;;;;;;;10.20;7.90;;;1.00;99.90;;;;;;5074324;28;20251;-73
2023/03/17 03:03:29;;;;;;;9.50;7.43;;;1.00;99.90;;;;;;5090133;28;20580;-73
2023/03/17 03:05:57;;;;;;;10.17;7.80;;;1.10;99.90;;;;;;5094823;28;20199;-74
2023/03/17 03:08:25;;;;;;;13.80;8.80;;;1.10;99.90;;;;;;5094757;28;20198;-74
2023/03/17 03:10:51;;;;;;;12.80;8.73;;;1.10;99.90;;;;;;5094658;28;20204;-74
2023/03/17 03:13:20;;;;;;;10.57;8.37;;;1.10;99.90;;;;;;5094625;28;20200;-73
2023/03/17 03:15:47;;;;;;;10.87;7.60;;;1.00;99.90;;;;;;5094588;28;20204;-74
2023/03/17 03:18:14;;;;;;;11.60;8.53;;;1.00;99.90;;;;;;5094616;28;20196;-74
2023/03/17 03:20:43;;;;;;;12.40;8.20;;;1.00;99.90;;;;;;5094722;28;20283;-74
2023/03/17 03:23:09;;;;;;;9.40;7.63;;;1.00;99.90;;;;;;5094392;28;20223;-73
2023/03/17 03:25:37;;;;;;;11.03;8.13;;;1.00;99.90;;;;;;5094304;28;20250;-73
2023/03/17 03:28:04;;;;;;;11.07;7.77;;;0.90;99.90;;;;;;5094310;28;20209;-73
2023/03/17 03:30:33;;;;;;;10.43;7.77;;;0.90;99.90;;;;;;5094556;28;20197;-74
2023/03/17 03:32:59;;;;;;;11.30;7.93;;;0.90;99.90;;;;;;5094194;28;20224;-74
2023/03/17 03:35:26;;;;;;;12.77;7.63;;;0.90;99.90;;;;;;5094156;28;20239;-74
2023/03/17 03:37:53;;;;;;;11.73;8.80;;;0.90;99.90;;;;;;5094107;28;20287;-74
2023/03/17 03:40:19;;;;;;;12.23;8.50;;;1.00;99.90;;;;;;5093974;28;20224;-74
2023/03/17 03:42:46;;;;;;;10.33;8.20;;;0.90;99.90;;;;;;5093775;28;20256;-73
2023/03/17 03:45:13;;;;;;;10.47;7.47;;;0.90;99.90;;;;;;5093996;28;20253;-74
2023/03/17 03:47:40;;;;;;;10.60;7.40;;;0.90;99.90;;;;;;5093995;28;20226;-73
2023/03/17 03:50:09;;;;;;;12.87;7.77;;;0.90;99.90;;;;;;5093691;28;20200;-74
2023/03/17 03:52:36;;;;;;;9.93;7.53;;;0.90;99.90;;;;;;5093926;28;20202;-73
2023/03/17 03:55:03;;;;;;;10.40;7.93;;;1.00;99.90;;;;;;5093738;28;20622;-74
2023/03/17 03:57:29;;;;;;;9.13;7.27;;;0.90;99.90;;;;;;5093618;28;20235;-74
2023/03/17 03:59:56;;;;;;;9.27;7.40;;;0.90;99.90;;;;;;5093644;28;20664;-74
2023/03/17 04:02:22;;;;;;;8.97;6.83;;;0.90;99.90;;;;;;5093805;28;20277;-72
2023/03/17 04:04:50;;;;;;;10.40;7.23;;;1.00;99.90;;;;;;5093459;28;20662;-71
2023/03/17 04:07:17;;;;;;;11.83;7.40;;;0.90;99.90;;;;;;5093493;28;20200;-72
2023/03/17 04:09:44;;;;;;;11.87;8.10;;;1.00;99.90;;;;;;5093561;28;20235;-73
2023/03/17 04:12:11;;;;;;;10.00;6.93;;;1.00;99.90;;;;;;5093399;28;20695;-73
2023/03/17 04:14:38;;;;;;;10.83;6.63;;;1.00;99.90;;;;;;5093530;28;20204;-72
2023/03/17 04:17:04;;;;;;;8.03;6.10;;;1.10;99.90;;;;;;5093464;28;20227;-73
2023/03/17 04:19:31;;;;;;;7.83;6.37;;;1.10;99.90;;;;;;5093526;28;20202;-73
2023/03/17 04:21:59;;;;;;;10.47;6.37;;;1.10;99.90;;;;;;5093347;28;20269;-73
2023/03/17 04:24:26;;;;;;;10.00;6.67;;;1.10;99.90;;;;;;5093068;28;20265;-73
2023/03/17 04:26:53;;;;;;;10.27;6.63;;;1.10;99.90;;;;;;5093316;28;20207;-73
2023/03/17 04:29:19;;;;;;;11.37;6.30;;;1.10;99.90;;;;;;5093058;28;20231;-72
2023/03/17 04:31:46;;;;;;;8.00;7.00;;;1.10;99.90;;;;;;5093324;28;20228;-73
2023/03/17 04:34:15;;;;;;;11.40;6.70;;;1.10;99.90;;;;;;5093073;28;20297;-73
2023/03/17 04:36:42;;;;;;;10.37;7.10;;;1.00;99.90;;;;;;5093052;28;20200;-72
2023/03/17 04:39:10;;;;;;;8.77;6.50;;;1.00;99.90;;;;;;5092999;28;20191;-73
2023/03/17 04:41:36;;;;;;;10.30;7.10;;;1.00;99.90;;;;;;5093167;28;20228;-72
2023/03/17 04:44:03;;;;;;;8.03;6.87;;;0.90;99.90;;;;;;5093138;28;20694;-72
2023/03/17 04:46:30;;;;;;;8.10;6.40;;;0.80;99.90;;;;;;5093022;28;20238;-73
2023/03/17 04:48:57;;;;;;;8.00;6.13;;;0.80;99.90;;;;;;5093086;28;20224;-72
2023/03/17 04:51:24;;;;;;;6.87;5.67;;;0.70;99.90;;;;;;5092887;28;20685;-72
2023/03/17 04:53:51;;;;;;;7.83;5.93;;;0.70;99.90;;;;;;5092880;28;20235;-72
2023/03/17 04:56:19;;;;;;;9.97;6.73;;;0.60;99.90;;;;;;5092988;28;20200;-72
2023/03/17 04:58:46;;;;;;;8.87;6.77;;;0.60;99.90;;;;;;5092462;28;20247;-73
2023/03/17 05:01:13;;;;;;;8.50;6.87;;;0.50;99.90;;;;;;5092834;28;20691;-73
2023/03/17 05:03:40;;;;;;;9.07;6.53;;;0.40;99.90;;;;;;5092603;28;20261;-74
2023/03/17 05:06:07;;;;;;;9.63;7.13;;;0.40;99.90;;;;;;5092569;28;20232;-73
2023/03/17 05:08:33;;;;;;;10.70;7.07;;;0.40;99.90;;;;;;5092947;28;20239;-72
2023/03/17 05:11:00;;;;;;;8.10;6.33;;;0.30;99.90;;;;;;5092696;28;20228;-73
2023/03/17 05:13:28;;;;;;;10.30;6.87;;;0.30;99.90;;;;;;5088640;28;20557;-73
2023/03/17 05:15:55;;;;;;;9.83;7.70;;;0.30;99.90;;;;;;5092584;28;20239;-73
2023/03/17 05:18:24;;;;;;;11.83;8.97;;;0.30;99.90;;;;;;5092478;28;20200;-73
2023/03/17 05:20:51;;;;;;;11.43;8.00;;;0.20;99.90;;;;;;5092486;28;20635;-73
2023/03/17 05:23:17;;;;;;;13.50;7.90;;;0.20;99.90;;;;;;5092598;28;20228;-73
2023/03/17 05:25:44;;;;;;;9.00;6.70;;;0.20;99.90;;;;;;5092511;28;20192;-74
2023/03/17 05:28:12;;;;;;;10.37;7.10;;;0.20;99.90;;;;;;5092563;28;20279;-73
2023/03/17 05:30:41;;;;;;;9.40;6.70;;;0.20;99.90;;;;;;5092443;28;20246;-73
2023/03/17 05:33:07;;;;;;;9.67;6.70;;;0.00;99.90;;;;;;5085951;28;20624;-73
2023/03/17 05:35:34;;;;;;;8.60;6.57;;;0.00;99.90;;;;;;5072247;28;20224;-72
2023/03/17 05:38:01;;;;;;;10.40;6.90;;;-0.10;99.90;;;;;;5054394;28;20225;-72
2023/03/17 05:40:27;;;;;;;8.03;6.83;;;0.00;99.90;;;;;;5052202;28;20620;-72
2023/03/17 05:42:54;;;;;;;10.13;6.73;;;0.00;99.90;;;;;;5062352;28;20256;-72
2023/03/17 05:45:21;;;;;;;9.43;7.07;;;0.10;99.90;;;;;;5072353;28;20256;-72
2023/03/17 05:47:49;;;;;;;10.90;7.17;;;0.10;99.90;;;;;;5075026;28;20228;-72
2023/03/17 05:50:16;;;;;;;10.87;7.37;;;0.10;99.90;;;;;;5073078;28;20223;-73
2023/03/17 05:52:42;;;;;;;8.30;7.07;;;0.20;99.90;;;;;;5058402;28;20221;-73
2023/03/17 05:55:10;;;;;;;9.93;7.17;;;0.10;99.90;;;;;;5052696;28;20236;-73
2023/03/17 05:57:37;;;;;;;10.80;7.30;;;0.10;99.90;;;;;;5052821;28;20308;-72
2023/03/17 06:00:04;;;;;;;13.27;8.10;;;0.20;99.90;;;;;;5052780;28;20204;-73
2023/03/17 06:02:31;;;;;;;12.20;7.50;;;0.20;99.90;;;;;;5051947;28;20669;-74
2023/03/17 06:04:59;;;;;;;9.83;7.30;;;0.30;99.90;;;;;;5051995;28;20252;-72
2023/03/17 06:07:26;;;;;;;11.70;7.00;;;0.40;99.90;;;;;;5051908;28;20202;-74
2023/03/17 06:09:53;;;;;;;10.43;6.77;;;0.40;99.90;;;;;;5051995;28;20212;-73
2023/03/17 06:12:19;;;;;;;8.00;6.70;;;0.50;99.90;;;;;;5054904;28;20741;-73
2023/03/17 06:14:46;;;;;;;16.37;7.57;;;0.50;99.90;;;;;;5055347;28;20237;-73
2023/03/17 06:17:13;;;;;;;11.60;7.13;;;0.50;99.90;;;;;;5055485;28;20240;-73
2023/03/17 06:19:40;;;;;;;10.27;7.00;;;0.60;99.90;;;;;;5055422;28;20216;-72
2023/03/17 06:22:08;;;;;;;10.27;7.70;;;0.70;99.90;;;;;;5055471;28;20208;-73
2023/03/17 06:24:35;;;;;;;8.93;7.10;;;0.80;99.90;;;;;;5055162;28;20236;-72
2023/03/17 06:27:02;;;;;;;9.60;6.90;;;0.80;99.90;;;;;;5055455;28;20202;-73
2023/03/17 06:29:29;;;;;;;10.67;7.23;;;0.90;99.90;;;;;;5054834;28;20198;-72
2023/03/17 06:31:56;;;;;;;8.80;6.73;;;1.00;99.90;;;;;;5055368;28;20239;-75
2023/03/17 06:34:24;;;;;;;10.87;6.90;;;1.00;99.90;;;;;;5071335;28;20260;-73
2023/03/17 06:36:50;;;;;;;10.07;6.53;;;1.10;99.90;;;;;;5075129;28;20193;-73
2023/03/17 06:39:18;;;;;;;11.60;6.57;;;1.20;99.90;;;;;;5074962;28;20243;-73
2023/03/17 06:41:45;;;;;;;8.13;6.20;;;1.30;99.90;;;;;;5075002;28;20235;-73
2023/03/17 06:44:11;;;;;;;9.33;6.13;;;1.30;99.90;;;;;;5074723;28;20252;-74
2023/03/17 06:46:38;;;;;;;9.27;6.63;;;1.40;99.90;;;;;;5075052;28;20220;-74
2023/03/17 06:49:06;;;;;;;9.70;5.83;;;1.60;99.90;;;;;;5074670;28;20327;-74
2023/03/17 06:51:36;;;;;;;8.17;6.27;;;1.70;99.90;;;;;;5077763;28;20197;-74
2023/03/17 06:54:02;;;;;;;8.17;6.07;;;1.90;99.90;;;;;;5086243;28;20673;-74
2023/03/17 06:56:30;;;;;;;9.47;7.17;;;2.00;99.90;;;;;;5090244;28;20222;-73
2023/03/17 06:58:57;;;;;;;12.77;6.90;;;2.20;99.90;;;;;;5094515;28;20201;-74
2023/03/17 07:01:24;;;;;;;7.77;5.20;;;2.30;99.90;;;;;;5094690;28;20225;-73
2023/03/17 07:03:50;;;;;;;8.80;5.57;;;2.40;99.90;;;;;;5091371;28;20272;-73
2023/03/17 07:06:17;;;;;;;6.07;5.43;;;2.60;99.90;;;;;;5093689;28;20232;-73
2023/03/17 07:08:45;;;;;;;7.60;5.60;;;2.80;99.90;;;;;;5094690;28;20257;-73
2023/03/17 07:11:12;;;;;;;11.83;5.77;;;3.00;99.90;;;;;;5094625;28;20296;-74
2023/03/17 07:13:40;;;;;;;7.50;5.23;;;3.30;99.90;;;;;;5094859;28;20227;-73
2023/03/17 07:16:07;;;;;;;9.30;5.30;;;3.40;99.90;;;;;;5094643;28;20299;-74
2023/03/17 07:18:34;;;;;;;7.43;5.20;;;3.70;99.90;;;;;;5094588;28;20678;-74
2023/03/17 07:21:01;;;;;;;6.83;4.57;;;3.90;99.90;;;;;;5084131;28;20675;-73
2023/03/17 07:23:29;;;;;;;7.70;4.87;;;4.20;99.90;;;;;;5080902;28;20215;-73
2023/03/17 07:25:57;;;;;;;5.87;5.10;;;4.40;99.90;;;;;;5073734;28;20233;-73
2023/03/17 07:28:24;;;;;;;8.40;5.00;;;4.70;99.90;;;;;;5074310;28;20204;-72
2023/03/17 07:30:52;;;;;;;7.53;4.73;;;4.90;99.90;;;;;;5073836;28;20608;-73
2023/03/17 07:33:20;;;;;;;6.67;4.37;;;5.10;99.90;;;;;;5073853;28;20256;-72
2023/03/17 07:35:47;;;;;;;6.47;4.50;;;5.20;99.90;;;;;;5073790;28;20272;-72
2023/03/17 07:38:15;;;;;;;4.50;3.90;;;5.50;99.90;;;;;;5073716;28;20291;-71
2023/03/17 07:40:41;;;;;;;7.80;4.20;;;5.70;99.90;;;;;;5074048;28;20220;-72
2023/03/17 07:43:08;;;;;;;6.33;4.53;;;5.80;99.90;;;;;;5073742;28;20240;-72
2023/03/17 07:45:34;;;;;;;4.97;4.00;;;6.00;99.90;;;;;;5073652;28;20257;-72
2023/03/17 07:48:03;;;;;;;9.53;4.60;;;6.10;99.90;;;;;;5073498;28;20219;-72
2023/03/17 07:50:31;;;;;;;7.47;4.07;;;6.30;99.90;;;;;;5073552;28;20210;-71
2023/03/17 07:52:57;;;;;;;10.37;4.27;;;6.30;99.90;;;;;;5078035;28;20650;-72
2023/03/17 07:55:24;;;;;;;8.50;4.70;;;6.40;99.90;;;;;;5082570;28;20240;-73
2023/03/17 07:57:51;;;;;;;6.13;4.23;;;6.50;99.90;;;;;;5073488;28;20648;-72
2023/03/17 08:00:19;;;;;;;8.67;4.57;;;6.60;99.90;;;;;;5073428;28;20258;-73
2023/03/17 08:02:46;;;;;;;4.87;4.37;;;6.60;99.90;;;;;;5073339;28;20237;-72
2023/03/17 08:05:14;;;;;;;7.10;4.20;;;6.70;99.90;;;;;;5073258;28;20225;-73
2023/03/17 08:07:40;;;;;;;8.93;4.40;;;6.70;99.90;;;;;;5073512;28;20224;-72
2023/03/17 08:10:08;;;;;;;5.67;4.17;;;6.70;99.90;;;;;;5073299;28;20247;-72
2023/03/17 08:12:35;;;;;;;6.23;3.63;;;6.70;99.90;;;;;;5072976;28;20200;-71
2023/03/17 08:15:02;;;;;;;6.60;4.30;;;6.70;99.90;;;;;;5073086;28;20239;-72
2023/03/17 08:17:28;;;;;;;7.17;4.40;;;6.70;99.90;;;;;;5081169;28;20193;-72
2023/03/17 08:19:55;;;;;;;7.53;4.13;;;6.70;99.90;;;;;;5093319;28;20227;-72
2023/03/17 08:22:23;;;;;;;8.60;4.20;;;6.90;99.90;;;;;;5078208;28;20196;-72
2023/03/17 08:24:50;;;;;;;5.23;4.40;;;6.90;99.90;;;;;;5073071;28;20248;-73
2023/03/17 08:27:18;;;;;;;6.53;3.80;;;7.10;99.90;;;;;;5073066;28;20200;-73
2023/03/17 08:29:44;;;;;;;6.07;3.90;;;7.30;99.90;;;;;;5073018;28;20201;-73
2023/03/17 08:32:12;;;;;;;7.83;3.60;;;7.60;99.90;;;;;;5073022;28;20244;-72
2023/03/17 08:34:39;;;;;;;5.37;4.10;;;7.80;99.90;;;;;;5071974;28;20236;-72
2023/03/17 08:37:07;;;;;;;6.93;4.07;;;8.00;99.90;;;;;;5072833;28;20193;-72
2023/03/17 08:39:35;;;;;;;6.87;3.73;;;8.00;99.90;;;;;;5072870;28;20197;-72
2023/03/17 08:42:02;;;;;;;7.77;3.47;;;8.20;99.90;;;;;;5072904;28;20589;-72
2023/03/17 08:44:29;;;;;;;7.03;3.80;;;8.40;99.90;;;;;;5072419;28;20302;-73
2023/03/17 08:46:56;;;;;;;8.10;4.03;;;8.50;99.90;;;;;;5072447;28;20197;-72
2023/03/17 08:49:26;;;;;;;4.80;3.60;;;8.70;99.90;;;;;;5072795;28;20197;-81
2023/03/17 08:51:53;;;;;;;6.60;3.50;;;8.80;99.90;;;;;;5072855;28;20200;-74
2023/03/17 08:54:20;;;;;;;4.20;3.67;;;9.10;99.90;;;;;;5072671;28;20228;-75
2023/03/17 08:56:48;;;;;;;5.10;3.60;;;9.40;99.90;;;;;;5072585;28;20597;-75
2023/03/17 08:59:14;;;;;;;7.67;4.07;;;9.60;99.90;;;;;;5072623;28;20232;-71
2023/03/17 09:01:42;;;;;;;6.10;3.67;;;9.70;99.90;;;;;;5072447;28;20225;-72
2023/03/17 09:04:09;;;;;;;4.10;3.20;;;9.80;99.90;;;;;;5072826;28;20197;-72
2023/03/17 09:06:37;;;;;;;5.47;3.27;;;9.60;99.90;;;;;;5072753;28;20201;-72
2023/03/17 09:09:04;;;;;;;3.90;3.00;;;9.70;99.90;;;;;;5072563;28;20324;-72
2023/03/17 09:11:31;;;;;;;5.50;3.20;;;9.80;99.90;;;;;;5072651;28;20205;-73
2023/03/17 09:13:59;;;;;;;5.57;3.47;;;9.70;99.90;;;;;;5072456;28;20197;-73
2023/03/17 09:16:27;;;;;;;6.40;3.40;;;9.80;99.90;;;;;;5072531;28;20254;-72
2023/03/17 09:18:54;;;;;;;5.90;3.33;;;10.00;99.90;;;;;;5072329;28;20679;-72
2023/03/17 09:21:21;;;;;;;3.80;3.30;;;10.10;99.90;;;;;;5072622;28;20233;-72
2023/03/17 09:23:48;;;;;;;4.33;3.50;;;10.20;99.90;;;;;;5072481;28;20205;-72
2023/03/17 09:26:14;;;;;;;4.43;3.40;;;10.60;99.90;;;;;;5072459;28;20260;-72
2023/03/17 09:28:41;;;;;;;5.83;3.63;;;10.90;99.90;;;;;;5072398;28;20228;-72
2023/03/17 09:31:12;;;;;;;5.03;3.50;;;10.90;99.90;;;;;;5088441;28;20200;-72
2023/03/17 09:33:40;;;;;;;7.07;3.57;;;11.30;99.90;;;;;;5089073;28;20278;-73
2023/03/17 09:36:07;;;;;;;5.10;3.50;;;11.60;99.90;;;;;;5092466;28;20215;-72
2023/03/17 09:38:34;;;;;;;8.87;3.63;;;12.10;99.90;;;;;;5092171;28;20232;-72
2023/03/17 09:41:20;;;;;;;6.93;3.63;;;12.50;99.90;;;;;;5092189;28;20243;-72
2023/03/17 09:43:56;;;;;;;3.70;2.90;;;12.60;99.90;;;;;;5092530;28;20246;-73
2023/03/17 09:46:38;;;;;;;10.57;3.60;;;12.70;98.10;;;;;;5095842;28;20262;-73
2023/03/17 09:49:08;;;;;;;3.17;2.88;;;13.10;97.90;;;;;;5096307;28;20656;-74
2023/03/17 09:51:35;;;;;;;5.82;3.17;;;13.60;97.00;;;;;;5096114;28;20238;-73
2023/03/17 09:54:04;;;;;;;5.03;2.70;;;13.80;94.10;;;;;;5096457;28;20291;-74
2023/03/17 09:56:33;;;;;;;3.97;2.58;;;14.00;94.90;;;;;;5096199;28;20192;-74
2023/03/17 09:59:04;;;;;;;4.13;2.97;;;14.30;92.70;;;;;;5096062;28;20232;-73
2023/03/17 10:01:32;;;;;;;6.38;3.38;;;14.50;90.70;;;;;;5096063;28;20231;-72
2023/03/17 10:03:59;;;;;;;4.78;2.95;;;14.90;90.70;;;;;;5095855;28;20224;-72
2023/03/17 10:06:37;;;;;;;6.35;2.80;;;15.20;89.70;;;;;;5095825;28;20859;-72
2023/03/17 10:09:17;;;;;;;6.35;2.97;;;15.30;85.50;;;;;;5095830;28;20196;-72
2023/03/17 10:11:47;;;;;;;7.85;2.92;;;15.50;83.00;;;;;;5095908;28;20270;-72
2023/03/17 10:14:27;;;;;;;5.30;2.80;;;15.60;81.20;;;;;;5095613;28;20193;-72
2023/03/17 10:17:00;;;;;;;3.88;2.83;;;15.60;81.90;;;;;;5095750;28;20215;-72
2023/03/17 10:19:30;;;;;;;4.10;2.88;;;16.00;81.20;;;;;;5095834;28;20200;-72
2023/03/17 10:22:00;;;;;;;3.33;3.03;;;16.40;78.70;;;;;;5095845;28;20239;-72
2023/03/17 10:24:31;;;;;;;4.78;2.65;;;16.40;78.10;;;;;;5095468;28;20223;-73
2023/03/17 10:27:01;;;;;;;3.25;2.42;;;17.10;76.70;;;;;;5095263;28;20255;-72
2023/03/17 10:29:30;;;;;;;3.75;2.60;;;17.30;73.90;;;;;;5095640;28;20204;-72
2023/03/17 10:31:58;;;;;;;4.32;2.63;;;17.60;69.00;;;;;;5095446;28;20197;-72
2023/03/17 10:34:27;;;;;;;5.13;2.47;;;18.10;71.40;;;;;;5095234;28;20264;-72
2023/03/17 10:36:55;;;;;;;4.90;2.80;;;18.40;67.80;;;;;;5095375;28;20250;-72
2023/03/17 10:39:23;;;;;;;7.80;2.95;;;18.20;65.20;;;;;;5095279;28;20621;-72
2023/03/17 10:41:56;;;;;;;3.30;2.65;;;18.20;61.70;;;;;;5095240;28;20567;-72
2023/03/17 10:44:35;;;;;;;7.70;2.88;;;19.00;63.20;;;;;;5095322;28;20193;-72
2023/03/17 10:47:03;;;;;;;3.90;2.35;;;19.30;60.20;;;;;;5094977;28;20231;-72
2023/03/17 10:49:36;;;;;;;6.13;2.70;;;19.60;60.50;;;;;;5095116;28;20249;-72
2023/03/17 10:52:07;;;;;;;2.72;2.47;;;20.30;58.10;;;;;;5095123;28;20208;-85
2023/03/17 10:54:35;;;;;;;4.25;2.45;;;20.30;54.80;;;;;;5095204;28;20200;-72
2023/03/17 10:57:06;;;;;;;3.70;2.25;;;20.80;53.40;;;;;;5094053;28;20204;-74
2023/03/17 10:59:42;;;;;;;4.38;2.72;;;21.40;53.80;;;;;;5094785;28;20552;-74
2023/03/17 11:02:20;;;;;;;3.22;2.35;;;21.50;53.30;;;;;;5094919;28;20196;-75
2023/03/17 11:04:47;;;;;;;2.47;2.28;;;22.50;50.70;;;;;;5094671;28;20224;-75
2023/03/17 11:07:17;;;;;;;3.47;2.40;;;22.80;49.60;;;;;;5094544;28;20732;-75
2023/03/17 11:09:49;;;;;;;4.10;2.58;;;23.00;47.30;;;;;;5094656;28;20663;-75
2023/03/17 11:12:24;;;;;;;3.33;2.45;;;23.00;46.10;;;;;;5094756;28;20226;-74
2023/03/17 11:14:56;;;;;;;3.22;2.50;;;22.80;43.90;;;;;;5094549;28;20191;-75
2023/03/17 11:17:36;;;;;;;2.78;2.47;;;23.50;44.90;;;;;;5094751;28;20561;-73
2023/03/17 11:20:15;;;;;;;3.75;2.67;;;23.30;41.60;;;;;;5094641;28;20236;-73
2023/03/17 11:22:47;;;;;;;4.95;2.60;;;23.40;39.80;;;;;;5094440;28;20650;-73
2023/03/17 11:25:18;;;;;;;2.88;2.45;;;23.70;39.10;;;;;;5094327;28;20232;-73
2023/03/17 11:27:48;;;;;;;2.58;2.38;;;23.80;38.90;;;;;;5094362;28;20273;-73
2023/03/17 11:30:21;;;;;;;3.55;2.30;;;24.20;38.60;;;;;;5094423;28;20402;-73
2023/03/17 11:32:56;;;;;;;2.67;2.22;;;24.50;37.80;;;;;;5093928;28;20272;-73
2023/03/17 11:35:37;;;;;;;4.10;2.40;;;24.50;36.00;;;;;;5094220;28;20223;-73
2023/03/17 11:38:27;;;;;;;2.58;2.33;;;25.00;35.10;;;;;;5094104;28;20235;-73
2023/03/17 11:41:26;;;;;;;2.83;2.17;;;25.10;34.90;;;;;;5094036;28;20200;-73
2023/03/17 11:44:12;;;;;;;2.95;2.15;;;25.40;33.60;;;;;;5091451;28;20204;-73
2023/03/17 11:46:46;;;;;;;2.75;2.10;;;25.80;33.20;;;;;;5094033;28;20206;-73
2023/03/17 11:49:19;;;;;;;2.58;2.03;;;25.50;32.60;;;;;;5093953;28;20238;-73
2023/03/17 11:51:53;;;;;;;2.40;2.05;;;25.30;32.50;;;;;;5093852;28;20634;-78
2023/03/17 11:54:27;;;;;;;2.33;2.13;;;26.20;31.10;;;;;;5093711;28;20200;-73
2023/03/17 11:56:58;;;;;;;2.20;1.98;;;26.10;30.30;;;;;;5093509;28;20219;-72
2023/03/17 11:59:31;;;;;;;4.40;2.15;;;26.40;29.40;;;;;;5093692;28;20218;-72
2023/03/17 12:02:05;;;;;;;3.03;2.38;;;25.80;27.90;;;;;;5093607;28;20196;-71
2023/03/17 12:04:37;;;;;;;4.15;2.30;;;25.00;29.30;;;;;;5093313;28;20237;-73
2023/03/17 12:07:12;;;;;;;2.75;2.00;;;26.40;29.00;;;;;;5093245;28;20202;-73
2023/03/17 12:09:44;;;;;;;3.00;2.30;;;27.20;28.50;;;;;;5093165;28;20244;-73
2023/03/17 12:12:18;;;;;;;4.78;2.30;;;26.40;26.90;;;;;;5093567;28;20235;-73
2023/03/17 12:14:51;;;;;;;3.47;2.38;;;26.50;27.60;;;;;;5093318;28;20231;-73
2023/03/17 12:17:21;;;;;;;2.42;2.10;;;25.60;27.10;;;;;;5093228;28;20235;-73
2023/03/17 12:20:00;;;;;;;4.40;2.40;;;26.00;27.40;;;;;;5093346;28;20246;-72
2023/03/17 12:22:31;;;;;;;2.95;2.40;;;26.40;27.40;;;;;;5093676;28;20610;-73
2023/03/17 12:25:09;;;;;;;3.42;2.40;;;25.40;28.00;;;;;;5093153;28;20286;-72
2023/03/17 12:27:42;;;;;;;2.97;2.50;;;25.20;27.50;;;;;;5093212;28;20227;-72
2023/03/17 12:30:20;;;;;;;3.08;2.53;;;25.00;28.00;;;;;;5093201;28;20235;-72
2023/03/17 12:32:53;;;;;;;3.05;2.30;;;25.60;28.20;;;;;;5093194;28;20250;-72
2023/03/17 12:35:27;;;;;;;2.70;2.30;;;26.20;27.60;;;;;;5093108;28;20613;-72
2023/03/17 12:37:58;;;;;;;4.68;2.08;;;26.70;27.30;;;;;;5093118;28;20666;-71
2023/03/17 12:40:30;;;;;;;3.30;2.30;;;27.80;26.40;;;;;;5092991;28;20232;-74
2023/03/17 12:43:14;;;;;;;4.03;2.50;;;28.20;25.40;;;;;;5092989;28;20196;-74
2023/03/17 12:45:53;;;;;;;4.68;2.30;;;27.40;26.50;;;;;;5092872;28;20196;-74
2023/03/17 12:48:38;;;;;;;2.17;1.98;;;28.10;25.40;;;;;;5092963;28;20224;-74
2023/03/17 12:51:27;;;;;;;2.20;2.00;;;26.80;24.90;;;;;;5093225;28;20227;-74
2023/03/17 12:53:54;;;;;;;4.45;2.60;;;25.00;26.00;;;;;;5089391;28;20197;-74
2023/03/17 12:56:26;;;;;;;2.17;1.98;;;25.30;26.30;;;;;;5092837;28;20256;-74